Time;durP1;ratioP1;P1;durP2;ratioP2;P2;SDS_P1;SDS_P2;PMS_P1;PMS_P2;Temp;Humidity;BMP_temperature;BMP_pressure;BME280_temperature;BME280_humidity;BME280_pressure;Samples;Min_cycle;Max_cycle;Signal;HPM_P1;HPM_P2
2022/03/13 00:02:09;;;;;;;20.37;12.60;;;4.10;39.10;;;;;;5055053;28;20217;-71
2022/03/13 00:04:36;;;;;;;19.93;11.97;;;4.20;39.40;;;;;;5061210;28;20293;-70
2022/03/13 00:07:08;;;;;;;19.00;11.77;;;4.10;39.40;;;;;;5054971;28;20210;-70
2022/03/13 00:09:35;;;;;;;21.50;12.47;;;4.10;39.40;;;;;;5057789;28;20209;-69
2022/03/13 00:12:04;;;;;;;17.67;11.60;;;4.10;39.50;;;;;;5067866;28;20196;-70
2022/03/13 00:14:31;;;;;;;19.53;12.30;;;4.10;39.50;;;;;;5061907;28;20651;-70
2022/03/13 00:16:59;;;;;;;24.60;12.57;;;4.10;39.50;;;;;;5053756;28;20301;-70
2022/03/13 00:19:27;;;;;;;18.57;12.40;;;4.00;39.40;;;;;;5055998;28;20709;-70
2022/03/13 00:21:54;;;;;;;23.97;12.93;;;4.00;39.40;;;;;;5056830;28;20639;-71
2022/03/13 00:24:22;;;;;;;19.73;12.77;;;4.00;39.50;;;;;;5054516;28;20202;-72
2022/03/13 00:26:51;;;;;;;22.30;12.97;;;4.00;39.60;;;;;;5054332;28;20708;-70
2022/03/13 00:29:18;;;;;;;23.33;13.43;;;4.00;39.70;;;;;;5054283;28;20202;-70
2022/03/13 00:31:45;;;;;;;22.23;13.23;;;4.00;39.80;;;;;;5054259;28;20281;-70
2022/03/13 00:34:14;;;;;;;20.03;12.47;;;3.90;39.80;;;;;;5067055;28;20267;-71
2022/03/13 00:36:41;;;;;;;20.20;12.13;;;3.90;39.90;;;;;;5054495;28;20210;-70
2022/03/13 00:39:09;;;;;;;25.73;13.10;;;3.90;39.90;;;;;;5068107;28;20245;-71
2022/03/13 00:41:37;;;;;;;20.33;12.63;;;3.90;39.90;;;;;;5073856;28;20288;-69
2022/03/13 00:44:05;;;;;;;21.40;12.67;;;3.90;40.00;;;;;;5062074;28;20292;-70
2022/03/13 00:46:32;;;;;;;24.30;14.03;;;3.90;40.10;;;;;;5071440;28;20205;-70
2022/03/13 00:48:59;;;;;;;24.13;13.93;;;3.80;40.20;;;;;;5063081;28;20209;-70
2022/03/13 00:51:27;;;;;;;23.97;13.20;;;3.80;40.20;;;;;;5054145;28;20238;-70
2022/03/13 00:53:54;;;;;;;21.17;13.43;;;3.80;40.40;;;;;;5072502;28;20239;-70
2022/03/13 00:56:21;;;;;;;23.47;14.10;;;3.80;40.50;;;;;;5073438;28;20259;-70
2022/03/13 00:58:48;;;;;;;22.30;13.40;;;3.70;40.40;;;;;;5066127;28;20203;-70
2022/03/13 01:01:15;;;;;;;23.63;13.53;;;3.70;40.30;;;;;;5061430;28;20267;-71
2022/03/13 01:03:50;;;;;;;24.07;13.40;;;3.70;40.30;;;;;;5053510;28;20272;-70
2022/03/13 01:06:19;;;;;;;22.43;14.17;;;3.70;40.40;;;;;;5054231;28;20689;-70
2022/03/13 01:08:49;;;;;;;24.20;13.37;;;3.70;40.50;;;;;;5055204;28;20216;-70
2022/03/13 01:11:18;;;;;;;20.37;12.70;;;3.70;41.10;;;;;;5064720;28;20697;-71
2022/03/13 01:13:45;;;;;;;23.47;14.10;;;3.60;40.40;;;;;;5055877;28;20198;-70
2022/03/13 01:16:15;;;;;;;26.73;15.03;;;3.70;40.60;;;;;;5053749;28;20245;-71
2022/03/13 01:18:45;;;;;;;23.50;13.73;;;3.60;40.60;;;;;;5054123;28;20947;-70
2022/03/13 01:21:14;;;;;;;26.27;13.63;;;3.60;40.50;;;;;;5055800;28;20225;-70
2022/03/13 01:23:41;;;;;;;23.27;14.77;;;3.60;40.40;;;;;;5061266;28;20238;-70
2022/03/13 01:26:36;;;;;;;21.67;13.43;;;3.60;40.50;;;;;;5052686;28;20581;-71
2022/03/13 01:29:06;;;;;;;26.23;13.63;;;3.60;40.70;;;;;;5053889;28;20257;-70
2022/03/13 01:31:35;;;;;;;23.23;14.27;;;3.60;40.70;;;;;;5059472;28;20304;-71
2022/03/13 01:34:03;;;;;;;21.47;12.93;;;3.60;40.70;;;;;;5067939;28;20279;-71
2022/03/13 01:36:30;;;;;;;20.17;13.10;;;3.60;40.70;;;;;;5063387;28;20303;-70
2022/03/13 01:38:59;;;;;;;22.87;13.10;;;3.50;40.60;;;;;;5073662;28;20197;-70
2022/03/13 01:41:28;;;;;;;24.00;14.40;;;3.50;40.80;;;;;;5055740;28;20233;-70
2022/03/13 01:43:58;;;;;;;24.57;14.23;;;3.50;40.80;;;;;;5060069;28;20233;-70
2022/03/13 01:46:25;;;;;;;23.90;13.90;;;3.50;41.30;;;;;;5058895;28;20220;-70
2022/03/13 01:48:54;;;;;;;22.90;14.53;;;3.50;40.60;;;;;;5076106;28;20219;-71
2022/03/13 01:51:22;;;;;;;24.23;14.30;;;3.50;40.60;;;;;;5062326;28;20289;-70
2022/03/13 01:53:52;;;;;;;23.90;14.13;;;3.50;40.60;;;;;;5057555;28;20202;-71
2022/03/13 01:56:20;;;;;;;26.17;13.70;;;3.50;40.70;;;;;;5057492;28;20213;-70
2022/03/13 01:58:51;;;;;;;27.63;14.33;;;3.50;40.70;;;;;;5060608;28;20208;-70
2022/03/13 02:01:20;;;;;;;24.23;14.70;;;3.40;40.80;;;;;;5074478;28;20301;-69
2022/03/13 02:03:48;;;;;;;24.87;14.90;;;3.40;40.90;;;;;;5066974;28;20229;-70
2022/03/13 02:06:15;;;;;;;22.77;14.50;;;3.40;41.00;;;;;;5075775;28;20947;-70
2022/03/13 02:08:44;;;;;;;28.83;14.77;;;3.40;41.10;;;;;;5061109;28;20546;-69
2022/03/13 02:11:15;;;;;;;25.80;13.93;;;3.40;41.20;;;;;;5057203;28;20297;-69
2022/03/13 02:13:41;;;;;;;24.30;14.50;;;3.40;41.30;;;;;;5056670;28;20514;-70
2022/03/13 02:16:09;;;;;;;25.00;14.57;;;3.30;41.20;;;;;;5064081;28;20213;-69
2022/03/13 02:18:39;;;;;;;29.80;15.13;;;3.30;41.40;;;;;;5070977;28;20714;-71
2022/03/13 02:21:06;;;;;;;25.93;14.07;;;3.30;41.50;;;;;;5061479;28;20226;-70
2022/03/13 02:23:36;;;;;;;26.67;14.80;;;3.30;41.40;;;;;;5069537;28;20321;-70
2022/03/13 02:26:07;;;;;;;24.57;13.60;;;3.30;41.50;;;;;;5057371;28;20773;-70
2022/03/13 02:28:36;;;;;;;26.93;15.17;;;3.30;41.50;;;;;;5057486;28;20206;-71
2022/03/13 02:31:05;;;;;;;26.77;15.10;;;3.30;41.60;;;;;;5058082;28;20206;-70
2022/03/13 02:33:34;;;;;;;28.13;14.20;;;3.20;41.70;;;;;;5059036;28;20681;-71
2022/03/13 02:36:03;;;;;;;25.30;14.23;;;3.20;41.80;;;;;;5058484;28;20202;-70
2022/03/13 02:38:30;;;;;;;25.13;14.30;;;3.20;42.70;;;;;;5071589;28;20241;-70
2022/03/13 02:40:59;;;;;;;24.03;14.53;;;3.10;42.20;;;;;;5068573;28;20246;-71
2022/03/13 02:43:26;;;;;;;28.20;15.80;;;3.10;42.20;;;;;;5074512;28;20228;-71
2022/03/13 02:45:55;;;;;;;27.10;16.17;;;3.10;42.20;;;;;;5071361;28;20245;-71
2022/03/13 02:48:22;;;;;;;28.60;16.87;;;3.10;42.20;;;;;;5077492;28;20229;-70
2022/03/13 02:50:49;;;;;;;27.07;15.27;;;3.00;42.10;;;;;;5062944;28;20210;-70
2022/03/13 02:53:17;;;;;;;27.23;16.10;;;3.10;42.20;;;;;;5073765;28;20198;-71
2022/03/13 02:55:45;;;;;;;27.87;15.17;;;3.00;42.50;;;;;;5062874;28;20269;-70
2022/03/13 02:58:13;;;;;;;28.40;15.67;;;3.00;42.60;;;;;;5066096;28;20564;-70
2022/03/13 03:00:46;;;;;;;29.33;16.80;;;3.00;42.70;;;;;;5069328;28;20273;-70
2022/03/13 03:03:15;;;;;;;31.70;16.07;;;3.10;42.90;;;;;;5057891;28;20281;-69
2022/03/13 03:05:42;;;;;;;28.40;16.50;;;3.00;42.90;;;;;;5069976;28;20600;-70
2022/03/13 03:08:10;;;;;;;25.00;15.67;;;3.10;43.00;;;;;;5065709;28;20209;-71
2022/03/13 03:10:37;;;;;;;26.63;16.30;;;3.10;42.90;;;;;;5056155;28;20243;-70
2022/03/13 03:13:05;;;;;;;31.10;16.90;;;3.10;42.90;;;;;;5056748;28;20297;-70
2022/03/13 03:15:34;;;;;;;25.73;15.67;;;3.20;43.20;;;;;;5056176;28;20292;-71
2022/03/13 03:18:02;;;;;;;29.50;16.93;;;3.20;43.40;;;;;;5055726;28;20208;-70
2022/03/13 03:20:29;;;;;;;29.57;17.27;;;3.20;43.20;;;;;;5059751;28;20304;-70
2022/03/13 03:22:56;;;;;;;33.97;17.40;;;3.20;43.20;;;;;;5065542;28;20328;-70
2022/03/13 03:25:26;;;;;;;32.43;17.97;;;3.30;43.00;;;;;;5058484;28;20236;-70
2022/03/13 03:27:54;;;;;;;31.43;17.33;;;3.20;42.90;;;;;;5056606;28;20601;-71
2022/03/13 03:30:22;;;;;;;29.77;17.37;;;3.30;43.10;;;;;;5055513;28;20675;-70
2022/03/13 03:32:51;;;;;;;29.90;17.77;;;3.30;43.10;;;;;;5058858;28;20604;-70
2022/03/13 03:35:19;;;;;;;33.60;18.20;;;3.40;43.20;;;;;;5068706;28;20205;-71
2022/03/13 03:37:47;;;;;;;32.37;17.63;;;3.40;43.20;;;;;;5057328;28;20206;-71
2022/03/13 03:40:14;;;;;;;33.37;18.13;;;3.40;43.40;;;;;;5067486;28;20226;-71
2022/03/13 03:42:42;;;;;;;35.70;18.00;;;3.40;43.30;;;;;;5062933;28;20241;-70
2022/03/13 03:45:10;;;;;;;34.80;18.97;;;3.40;43.20;;;;;;5054894;28;20229;-71
2022/03/13 03:47:37;;;;;;;30.60;17.50;;;3.40;43.20;;;;;;5066719;28;20240;-70
2022/03/13 03:50:06;;;;;;;35.20;18.97;;;3.40;43.40;;;;;;5056925;28;20206;-69
2022/03/13 03:52:33;;;;;;;33.87;19.03;;;3.40;43.40;;;;;;5055112;28;20210;-70
2022/03/13 03:55:00;;;;;;;37.20;19.97;;;3.40;43.30;;;;;;5054460;28;20301;-70
2022/03/13 03:57:27;;;;;;;30.67;17.97;;;3.40;43.10;;;;;;5064275;28;20514;-70
2022/03/13 03:59:54;;;;;;;34.90;18.70;;;3.40;43.20;;;;;;5068215;28;20219;-71
2022/03/13 04:02:21;;;;;;;31.43;18.23;;;3.40;43.30;;;;;;5060431;28;20205;-70
2022/03/13 04:04:48;;;;;;;32.73;19.40;;;3.40;43.50;;;;;;5057893;28;20225;-71
2022/03/13 04:07:18;;;;;;;35.13;20.47;;;3.40;43.70;;;;;;5058729;28;20306;-70
2022/03/13 04:09:45;;;;;;;32.33;19.33;;;3.40;43.80;;;;;;5054939;28;20363;-70
2022/03/13 04:12:12;;;;;;;35.47;19.20;;;3.40;43.90;;;;;;5059918;28;20212;-70
2022/03/13 04:14:39;;;;;;;35.40;20.03;;;3.40;44.10;;;;;;5064625;28;20208;-70
2022/03/13 04:17:06;;;;;;;33.87;19.33;;;3.40;44.10;;;;;;5054760;28;20229;-70
2022/03/13 04:19:33;;;;;;;31.33;18.03;;;3.40;44.10;;;;;;5061670;28;20252;-71
2022/03/13 04:22:00;;;;;;;31.83;19.03;;;3.40;44.10;;;;;;5066531;28;20225;-70
2022/03/13 04:24:30;;;;;;;35.90;19.20;;;3.50;44.40;;;;;;5066930;28;20228;-71
2022/03/13 04:26:58;;;;;;;31.57;18.57;;;3.50;44.30;;;;;;5055012;28;20194;-70
2022/03/13 04:29:25;;;;;;;36.67;21.20;;;3.50;44.30;;;;;;5056983;28;20289;-70
2022/03/13 04:31:54;;;;;;;33.47;18.47;;;3.40;44.30;;;;;;5064653;28;20247;-71
2022/03/13 04:34:22;;;;;;;30.90;18.23;;;3.40;44.30;;;;;;5056469;28;20351;-71
2022/03/13 04:36:49;;;;;;;31.73;18.63;;;3.40;44.10;;;;;;5054835;28;20603;-71
2022/03/13 04:39:16;;;;;;;37.37;19.73;;;3.40;44.00;;;;;;5067820;28;20233;-70
2022/03/13 04:41:45;;;;;;;33.47;19.60;;;3.40;43.90;;;;;;5055289;28;20214;-70
2022/03/13 04:44:14;;;;;;;39.40;20.77;;;3.30;43.90;;;;;;5060438;28;20218;-70
2022/03/13 04:46:41;;;;;;;36.70;20.00;;;3.30;44.10;;;;;;5073191;28;20292;-71
2022/03/13 04:49:08;;;;;;;36.50;20.00;;;3.20;44.10;;;;;;5053715;28;20297;-70
2022/03/13 04:51:35;;;;;;;41.83;20.10;;;3.10;44.10;;;;;;5054490;28;20224;-71
2022/03/13 04:54:02;;;;;;;39.40;21.80;;;3.10;44.30;;;;;;5064830;28;20208;-70
2022/03/13 04:56:29;;;;;;;41.60;21.77;;;3.00;44.30;;;;;;5068407;28;20577;-71
2022/03/13 04:58:57;;;;;;;39.40;21.23;;;2.90;44.40;;;;;;5054370;28;20209;-70
2022/03/13 05:01:24;;;;;;;40.60;20.57;;;2.90;44.50;;;;;;5064737;28;20231;-70
2022/03/13 05:03:50;;;;;;;38.33;21.33;;;2.90;44.50;;;;;;5053416;28;20229;-71
2022/03/13 05:06:17;;;;;;;39.23;21.70;;;2.90;44.50;;;;;;5066198;28;20266;-70
2022/03/13 05:08:44;;;;;;;36.60;20.13;;;2.90;44.50;;;;;;5055224;28;20573;-70
2022/03/13 05:11:11;;;;;;;34.37;21.10;;;3.00;44.70;;;;;;5053908;28;20222;-70
2022/03/13 05:13:38;;;;;;;40.57;21.63;;;3.00;44.80;;;;;;5053961;28;20314;-71
2022/03/13 05:16:07;;;;;;;37.17;21.27;;;3.00;45.50;;;;;;5053818;28;20581;-71
2022/03/13 05:18:34;;;;;;;38.00;21.97;;;3.00;45.00;;;;;;5068310;28;20396;-70
2022/03/13 05:21:01;;;;;;;39.00;21.57;;;3.00;45.10;;;;;;5069589;28;20237;-70
2022/03/13 05:23:28;;;;;;;40.10;20.50;;;3.00;45.00;;;;;;5072053;28;20297;-71
2022/03/13 05:25:55;;;;;;;38.60;21.33;;;3.00;45.00;;;;;;5069633;28;20201;-71
2022/03/13 05:28:21;;;;;;;38.77;19.97;;;3.00;44.80;;;;;;5063693;28;20284;-70
2022/03/13 05:30:48;;;;;;;38.50;21.13;;;3.00;45.30;;;;;;5070822;28;20209;-70
2022/03/13 05:33:17;;;;;;;37.37;20.70;;;3.00;44.80;;;;;;5062469;28;20295;-70
2022/03/13 05:35:44;;;;;;;41.53;21.97;;;2.90;44.90;;;;;;5059977;28;20238;-71
2022/03/13 05:38:11;;;;;;;40.13;22.43;;;2.80;45.10;;;;;;5068926;28;20260;-70
2022/03/13 05:40:38;;;;;;;39.53;22.80;;;2.80;45.30;;;;;;5076498;28;20315;-71
2022/03/13 05:43:05;;;;;;;40.87;23.00;;;2.80;45.50;;;;;;5071343;28;20208;-71
2022/03/13 05:45:32;;;;;;;42.63;22.23;;;2.70;45.80;;;;;;5078001;28;20721;-70
2022/03/13 05:48:01;;;;;;;41.63;22.47;;;2.70;46.20;;;;;;5071801;28;20206;-71
2022/03/13 05:50:30;;;;;;;39.93;23.10;;;2.60;46.10;;;;;;5070220;28;20233;-71
2022/03/13 05:52:58;;;;;;;41.97;24.07;;;2.60;46.40;;;;;;5062635;28;20205;-71
2022/03/13 05:55:26;;;;;;;41.07;23.10;;;2.60;46.50;;;;;;5065005;28;20203;-70
2022/03/13 05:57:54;;;;;;;41.33;22.97;;;2.60;46.70;;;;;;5076470;28;20272;-70
2022/03/13 06:00:23;;;;;;;48.27;24.33;;;2.70;46.80;;;;;;5062085;28;20669;-70
2022/03/13 06:02:50;;;;;;;42.97;23.70;;;2.70;46.80;;;;;;5071951;28;20233;-70
2022/03/13 06:05:19;;;;;;;39.73;22.90;;;2.70;46.70;;;;;;5076663;28;20672;-70
2022/03/13 06:07:48;;;;;;;39.07;22.67;;;2.90;46.60;;;;;;5070733;28;20205;-70
2022/03/13 06:10:15;;;;;;;38.03;21.83;;;3.10;46.50;;;;;;5072274;28;20218;-71
2022/03/13 06:12:42;;;;;;;39.03;22.80;;;3.30;46.30;;;;;;5061437;28;20237;-70
2022/03/13 06:15:12;;;;;;;36.93;22.33;;;3.50;45.90;;;;;;5067416;28;20966;-71
2022/03/13 06:17:40;;;;;;;41.07;22.67;;;3.60;45.40;;;;;;5073112;28;20217;-70
2022/03/13 06:20:10;;;;;;;38.90;21.50;;;3.70;45.10;;;;;;5071275;28;20204;-71
2022/03/13 06:22:37;;;;;;;42.47;22.13;;;3.60;45.10;;;;;;5066823;28;20205;-70
2022/03/13 06:25:07;;;;;;;39.50;22.07;;;3.70;45.00;;;;;;5062505;28;20220;-68
2022/03/13 06:27:34;;;;;;;44.33;26.90;;;3.60;44.70;;;;;;5060664;28;20443;-68
2022/03/13 06:30:08;;;;;;;41.40;23.10;;;3.70;44.80;;;;;;5065039;28;20264;-68
2022/03/13 06:32:35;;;;;;;42.87;24.37;;;3.80;44.80;;;;;;5067592;28;20210;-68
2022/03/13 06:35:02;;;;;;;41.07;22.80;;;3.80;44.60;;;;;;5068308;28;20670;-68
2022/03/13 06:37:29;;;;;;;35.40;21.77;;;3.90;44.50;;;;;;5071979;28;20220;-68
2022/03/13 06:39:56;;;;;;;39.53;22.47;;;4.00;44.30;;;;;;5062202;28;20284;-69
2022/03/13 06:42:24;;;;;;;45.25;28.13;;;4.10;43.90;;;;;;5060012;28;20497;-67
2022/03/13 06:44:51;;;;;;;41.57;21.70;;;4.10;43.00;;;;;;5059098;28;20230;-69
2022/03/13 06:47:18;;;;;;;37.93;21.13;;;4.10;42.60;;;;;;5060440;28;20262;-69
2022/03/13 06:49:45;;;;;;;34.77;21.53;;;4.20;42.10;;;;;;5058551;28;20301;-69
2022/03/13 06:52:12;;;;;;;39.43;21.60;;;4.30;41.90;;;;;;5059789;28;20285;-68
2022/03/13 06:54:39;;;;;;;41.03;22.33;;;4.60;41.70;;;;;;5062050;28;20212;-70
2022/03/13 06:57:06;;;;;;;41.00;23.47;;;4.90;40.80;;;;;;5056105;28;20649;-67
2022/03/13 06:59:34;;;;;;;41.83;22.83;;;5.00;40.40;;;;;;5067443;28;20204;-69
2022/03/13 07:02:01;;;;;;;41.53;23.73;;;5.00;40.10;;;;;;5069810;28;20221;-67
2022/03/13 07:04:28;;;;;;;38.93;22.53;;;5.10;40.20;;;;;;5073004;28;20701;-68
2022/03/13 07:06:55;;;;;;;37.53;22.00;;;5.10;40.20;;;;;;5069502;28;20248;-67
2022/03/13 07:09:22;;;;;;;40.87;23.80;;;5.10;39.90;;;;;;5070002;28;20213;-68
2022/03/13 07:11:51;;;;;;;44.53;24.80;;;5.10;39.60;;;;;;5073112;28;20201;-72
2022/03/13 07:14:18;;;;;;;40.70;26.10;;;5.10;39.70;;;;;;5073234;28;20212;-73
2022/03/13 07:16:47;;;;;;;45.37;25.23;;;5.10;39.80;;;;;;5072291;28;20197;-71
2022/03/13 07:19:14;;;;;;;45.47;25.07;;;5.20;40.50;;;;;;5071188;28;20201;-71
2022/03/13 07:21:41;;;;;;;51.17;27.87;;;5.20;39.80;;;;;;5071378;28;20236;-70
2022/03/13 07:24:09;;;;;;;51.57;26.63;;;5.30;39.80;;;;;;5073240;28;20225;-73
2022/03/13 07:26:36;;;;;;;45.10;26.77;;;5.50;39.70;;;;;;5069115;28;20205;-71
2022/03/13 07:29:04;;;;;;;46.87;27.93;;;5.60;39.70;;;;;;5074032;28;20237;-70
2022/03/13 07:31:31;;;;;;;46.17;27.77;;;5.70;39.80;;;;;;5069019;28;20217;-74
2022/03/13 07:34:00;;;;;;;52.37;29.43;;;5.80;39.80;;;;;;5067194;28;20664;-74
2022/03/13 07:36:27;;;;;;;47.03;28.43;;;5.90;39.50;;;;;;5059367;28;20252;-72
2022/03/13 07:38:54;;;;;;;52.37;30.03;;;6.00;39.30;;;;;;5065634;28;20212;-73
2022/03/13 07:41:21;;;;;;;53.47;29.97;;;6.10;39.40;;;;;;5068404;28;20578;-73
2022/03/13 07:43:48;;;;;;;48.27;30.37;;;6.20;40.10;;;;;;5063526;28;20589;-73
2022/03/13 07:46:15;;;;;;;53.43;30.47;;;6.40;39.60;;;;;;5056444;28;20245;-74
2022/03/13 07:48:44;;;;;;;51.97;29.20;;;6.50;39.50;;;;;;5055639;28;20206;-73
2022/03/13 07:51:13;;;;;;;50.87;27.77;;;6.60;39.30;;;;;;5063064;28;20205;-72
2022/03/13 07:53:40;;;;;;;47.80;28.13;;;6.70;39.10;;;;;;5062029;28;20212;-74
2022/03/13 07:56:06;;;;;;;52.17;29.63;;;6.70;39.00;;;;;;5069866;28;20197;-72
2022/03/13 07:58:34;;;;;;;50.90;29.13;;;6.70;39.10;;;;;;5073710;28;20236;-72
2022/03/13 08:01:01;;;;;;;47.73;28.30;;;6.80;39.40;;;;;;5068066;28;20669;-72
2022/03/13 08:03:29;;;;;;;49.00;28.13;;;6.90;39.40;;;;;;5074178;28;20700;-73
2022/03/13 08:05:56;;;;;;;45.13;27.37;;;7.10;39.40;;;;;;5062570;28;20308;-74
2022/03/13 08:08:25;;;;;;;50.00;28.10;;;7.30;39.10;;;;;;5060994;28;20674;-74
2022/03/13 08:10:52;;;;;;;44.23;26.03;;;7.50;39.00;;;;;;5067453;28;20675;-76
2022/03/13 08:13:19;;;;;;;44.50;26.67;;;7.60;38.60;;;;;;5056326;28;20202;-75
2022/03/13 08:15:46;;;;;;;36.67;24.03;;;7.70;38.50;;;;;;5053158;28;20210;-75
2022/03/13 08:18:13;;;;;;;37.50;23.70;;;7.90;38.50;;;;;;5055323;28;20638;-73
2022/03/13 08:20:40;;;;;;;36.47;22.97;;;8.00;38.20;;;;;;5059480;28;20631;-73
2022/03/13 08:23:07;;;;;;;35.50;21.93;;;8.10;38.00;;;;;;5065547;28;20229;-74
2022/03/13 08:25:36;;;;;;;40.97;24.17;;;8.20;37.90;;;;;;5070672;28;20316;-72
2022/03/13 08:28:03;;;;;;;36.30;23.23;;;8.30;37.40;;;;;;5065003;28;20205;-73
2022/03/13 08:30:30;;;;;;;39.73;23.03;;;8.40;37.40;;;;;;5055537;28;20218;-73
2022/03/13 08:32:57;;;;;;;37.60;21.77;;;8.40;37.40;;;;;;5064592;28;20639;-73
2022/03/13 08:35:24;;;;;;;38.50;23.17;;;8.40;37.20;;;;;;5058597;28;20225;-70
2022/03/13 08:37:52;;;;;;;34.40;22.80;;;8.50;37.40;;;;;;5059033;28;20213;-71
2022/03/13 08:40:20;;;;;;;34.80;20.83;;;8.70;37.50;;;;;;5067976;28;20218;-69
2022/03/13 08:42:48;;;;;;;35.67;21.70;;;8.90;37.40;;;;;;5068125;28;20296;-70
2022/03/13 08:45:15;;;;;;;31.47;21.30;;;9.10;37.00;;;;;;5054977;28;20221;-69
2022/03/13 08:47:42;;;;;;;36.53;23.88;;;9.20;36.80;;;;;;5069306;28;20511;-69
2022/03/13 08:50:11;;;;;;;38.50;25.38;;;9.40;36.60;;;;;;5055556;28;20538;-68
2022/03/13 08:52:39;;;;;;;39.13;23.23;;;9.60;36.60;;;;;;5057338;28;20259;-69
2022/03/13 08:55:08;;;;;;;35.97;23.67;;;9.70;36.40;;;;;;5054510;28;20202;-69
2022/03/13 08:57:35;;;;;;;37.70;22.70;;;10.00;35.50;;;;;;5072081;28;20286;-70
2022/03/13 09:00:04;;;;;;;33.83;22.33;;;10.30;35.30;;;;;;5056313;28;20292;-67
2022/03/13 09:02:31;;;;;;;32.23;21.17;;;10.50;34.80;;;;;;5055974;28;20614;-68
2022/03/13 09:04:58;;;;;;;33.93;22.43;;;10.70;34.70;;;;;;5058964;28;20250;-67
2022/03/13 09:07:25;;;;;;;34.27;21.77;;;10.90;35.00;;;;;;5054436;28;20209;-67
2022/03/13 09:09:52;;;;;;;32.73;20.20;;;11.10;35.20;;;;;;5055540;28;20237;-66
2022/03/13 09:12:19;;;;;;;37.87;21.33;;;11.30;35.00;;;;;;5058538;28;20201;-66
2022/03/13 09:14:46;;;;;;;35.33;21.53;;;11.40;34.90;;;;;;5054047;28;20208;-66
2022/03/13 09:17:17;;;;;;;32.40;21.47;;;11.60;35.70;;;;;;5055899;28;20219;-67
2022/03/13 09:19:44;;;;;;;32.17;21.00;;;12.00;35.60;;;;;;5068597;28;20283;-69
2022/03/13 09:22:13;;;;;;;27.80;19.40;;;13.40;37.60;;;;;;5065590;28;20308;-68
2022/03/13 09:24:40;;;;;;;26.77;19.20;;;16.40;35.00;;;;;;5059158;28;20278;-67
2022/03/13 09:27:07;;;;;;;28.67;19.90;;;20.10;29.80;;;;;;5054582;28;20217;-67
2022/03/13 09:29:34;;;;;;;29.05;21.20;;;23.00;27.10;;;;;;5066430;28;20293;-69
2022/03/13 09:32:01;;;;;;;29.52;21.20;;;25.40;25.70;;;;;;5056404;28;20205;-69
2022/03/13 09:34:30;;;;;;;27.60;19.48;;;27.20;24.20;;;;;;5055661;28;20210;-70
2022/03/13 09:36:57;;;;;;;27.05;19.98;;;28.60;23.00;;;;;;5053977;28;20568;-68
2022/03/13 09:39:25;;;;;;;24.02;18.95;;;29.20;22.10;;;;;;5067182;28;20320;-68
2022/03/13 09:41:54;;;;;;;26.63;19.98;;;29.90;21.50;;;;;;5067871;28;20204;-68
2022/03/13 09:44:21;;;;;;;26.17;20.08;;;30.10;20.80;;;;;;5066406;28;20647;-66
2022/03/13 09:46:48;;;;;;;25.60;20.05;;;30.10;21.40;;;;;;5069422;28;20222;-68
2022/03/13 09:49:17;;;;;;;24.67;18.77;;;30.70;20.90;;;;;;5056636;28;20194;-67
2022/03/13 09:51:45;;;;;;;25.65;19.75;;;32.20;20.30;;;;;;5060062;28;20285;-68
2022/03/13 09:54:13;;;;;;;22.85;19.42;;;32.70;19.70;;;;;;5053705;28;20640;-67
2022/03/13 09:56:40;;;;;;;23.08;19.65;;;33.50;19.70;;;;;;5053146;28;20210;-67
2022/03/13 09:59:07;;;;;;;23.27;17.48;;;34.50;19.80;;;;;;5062263;28;20640;-66
2022/03/13 10:01:35;;;;;;;18.95;15.90;;;35.00;18.90;;;;;;5058370;28;20206;-66
2022/03/13 10:04:04;;;;;;;22.27;17.65;;;34.50;19.10;;;;;;5065521;28;20206;-68
2022/03/13 10:06:33;;;;;;;21.40;16.20;;;34.10;19.40;;;;;;5055456;28;20228;-67
2022/03/13 10:09:27;;;;;;;21.10;16.52;;;34.30;19.50;;;;;;5059211;28;20210;-67
2022/03/13 10:12:05;;;;;;;18.23;15.95;;;35.00;19.40;;;;;;5068494;28;20197;-71
2022/03/13 10:14:32;;;;;;;18.35;15.57;;;35.50;18.60;;;;;;5062492;28;20225;-68
2022/03/13 10:16:59;;;;;;;18.30;15.77;;;35.00;19.00;;;;;;5056510;28;20205;-68
2022/03/13 10:19:31;;;;;;;18.75;15.10;;;34.90;18.90;;;;;;5072215;28;20674;-68
2022/03/13 10:22:07;;;;;;;17.48;14.27;;;35.50;18.90;;;;;;5071419;28;20678;-68
2022/03/13 10:24:42;;;;;;;16.27;14.45;;;35.80;18.50;;;;;;5075369;28;20753;-68
2022/03/13 10:27:13;;;;;;;15.77;13.30;;;35.80;18.60;;;;;;5072056;28;20201;-67
2022/03/13 10:29:42;;;;;;;16.70;13.90;;;35.80;18.50;;;;;;5066885;28;20274;-66
2022/03/13 10:32:09;;;;;;;16.02;13.43;;;37.10;18.60;;;;;;5076006;28;20213;-67
2022/03/13 10:34:36;;;;;;;18.33;13.57;;;38.20;17.90;;;;;;5076070;28;20213;-66
2022/03/13 10:37:04;;;;;;;15.80;13.52;;;38.30;17.50;;;;;;5076177;28;20217;-68
2022/03/13 10:39:33;;;;;;;15.55;13.52;;;37.90;17.80;;;;;;5074736;28;20233;-66
2022/03/13 10:42:03;;;;;;;15.00;13.38;;;38.60;17.80;;;;;;5058684;28;20672;-66
2022/03/13 10:44:34;;;;;;;14.98;13.40;;;39.90;17.70;;;;;;5073846;28;20240;-68
2022/03/13 10:47:08;;;;;;;13.65;12.35;;;40.80;17.40;;;;;;5056514;28;20307;-68
2022/03/13 10:49:38;;;;;;;14.40;12.48;;;41.20;16.80;;;;;;5056355;28;20221;-67
2022/03/13 10:52:29;;;;;;;12.93;11.18;;;41.80;16.70;;;;;;5056440;28;20263;-66
2022/03/13 10:54:57;;;;;;;13.35;10.57;;;42.00;16.70;;;;;;5055906;28;20213;-66
2022/03/13 10:57:25;;;;;;;14.25;11.23;;;41.60;16.70;;;;;;5063340;28;20570;-68
2022/03/13 11:00:11;;;;;;;13.82;11.38;;;41.90;16.70;;;;;;5056855;28;20213;-67
2022/03/13 11:02:38;;;;;;;12.27;10.98;;;43.00;16.40;;;;;;5064799;28;20271;-68
2022/03/13 11:05:06;;;;;;;12.20;10.90;;;43.70;16.20;;;;;;5055793;28;20209;-66
2022/03/13 11:07:33;;;;;;;11.13;9.90;;;44.30;15.80;;;;;;5057474;28;20296;-68
2022/03/13 11:10:01;;;;;;;10.88;9.63;;;44.20;15.60;;;;;;5060701;28;20213;-67
2022/03/13 11:12:31;;;;;;;13.88;9.68;;;43.40;15.40;;;;;;5056254;28;20201;-67
2022/03/13 11:15:01;;;;;;;11.38;10.10;;;41.70;16.10;;;;;;5055717;28;20244;-67
2022/03/13 11:17:30;;;;;;;11.55;9.82;;;40.90;16.40;;;;;;5054151;28;20725;-67
2022/03/13 11:19:59;;;;;;;11.57;9.60;;;40.40;16.40;;;;;;5056239;28;20221;-67
2022/03/13 11:22:27;;;;;;;11.95;9.73;;;40.00;16.40;;;;;;5056933;28;20356;-67
2022/03/13 11:24:58;;;;;;;11.25;10.15;;;39.30;16.60;;;;;;5064089;28;20281;-68
2022/03/13 11:27:30;;;;;;;10.85;9.75;;;38.30;16.70;;;;;;5063311;28;20229;-66
2022/03/13 11:30:00;;;;;;;10.82;9.75;;;37.70;17.30;;;;;;5056169;28;20270;-68
2022/03/13 11:32:40;;;;;;;10.95;9.85;;;37.60;16.90;;;;;;5056102;28;20236;-69
2022/03/13 11:35:29;;;;;;;10.55;9.40;;;37.10;17.40;;;;;;5054897;28;20210;-66
2022/03/13 11:38:18;;;;;;;11.43;10.20;;;37.70;17.70;;;;;;5060486;28;20205;-67
2022/03/13 11:40:45;;;;;;;10.43;9.35;;;38.90;17.00;;;;;;5061904;28;20234;-66
2022/03/13 11:43:15;;;;;;;11.68;10.48;;;39.40;17.00;;;;;;5066786;28;20206;-66
2022/03/13 11:45:47;;;;;;;10.43;8.93;;;40.20;16.40;;;;;;5064641;28;20267;-66
2022/03/13 11:48:37;;;;;;;9.90;8.85;;;39.50;16.40;;;;;;5054540;28;20206;-66
2022/03/13 11:51:05;;;;;;;9.75;8.50;;;39.00;16.90;;;;;;5048956;28;20205;-66
2022/03/13 11:53:44;;;;;;;9.88;8.68;;;39.20;16.70;;;;;;5056103;28;20603;-67
2022/03/13 11:56:13;;;;;;;9.77;8.77;;;38.70;16.70;;;;;;5060176;28;20213;-66
2022/03/13 11:58:43;;;;;;;10.57;8.95;;;38.30;16.90;;;;;;5054274;28;20210;-65
2022/03/13 12:01:15;;;;;;;9.50;8.60;;;37.60;16.80;;;;;;5054122;28;20534;-67
2022/03/13 12:04:23;;;;;;;10.43;9.38;;;36.30;17.10;;;;;;5053571;28;20221;-66
2022/03/13 12:06:52;;;;;;;9.95;8.40;;;35.00;17.60;;;;;;5056190;28;20214;-67
2022/03/13 12:09:19;;;;;;;10.15;9.05;;;33.90;18.20;;;;;;5054894;28;20671;-66
2022/03/13 12:11:50;;;;;;;9.73;8.73;;;33.20;18.40;;;;;;5068319;28;20247;-66
2022/03/13 12:14:20;;;;;;;10.38;9.05;;;33.20;18.90;;;;;;5055004;28;20599;-67
2022/03/13 12:17:04;;;;;;;9.02;8.13;;;34.00;18.60;;;;;;5054376;28;20208;-67
2022/03/13 12:19:39;;;;;;;9.25;8.05;;;34.50;18.40;;;;;;5065397;28;20627;-66
2022/03/13 12:22:06;;;;;;;11.23;8.82;;;34.50;18.30;;;;;;5063422;28;20282;-72
2022/03/13 12:24:34;;;;;;;11.40;9.32;;;35.10;18.60;;;;;;5058994;28;20275;-73
2022/03/13 12:27:05;;;;;;;9.55;7.88;;;36.40;18.00;;;;;;5069029;28;20671;-74
2022/03/13 12:29:33;;;;;;;12.80;8.57;;;37.30;17.30;;;;;;5056942;28;20241;-70
2022/03/13 12:32:01;;;;;;;11.52;8.23;;;36.10;17.40;;;;;;5055774;28;20220;-70
2022/03/13 12:34:30;;;;;;;9.70;8.70;;;34.90;18.10;;;;;;5059443;28;20218;-67
2022/03/13 12:37:02;;;;;;;9.00;8.00;;;33.80;18.50;;;;;;5054549;28;20594;-70
2022/03/13 12:39:29;;;;;;;9.85;8.23;;;32.70;18.50;;;;;;5062610;28;20248;-69
2022/03/13 12:41:58;;;;;;;15.05;9.30;;;31.90;18.90;;;;;;5067404;28;20563;-69
2022/03/13 12:44:27;;;;;;;10.15;9.02;;;31.40;19.00;;;;;;5061892;28;20217;-70